ARC Gloria — 5KMT — position and weather

sailwx.info

Track history (hours):
 
Tides and Currents Weather Stations Pressure Air Temp Water Temp Dewpoint Dewpoint Depression Visibility Wind Speed Wind Dir Waves Ship Positions

ARC Gloria (Colombia)

Three-masted barque. Training ship of the Colombian National Armada.

Ship's website: http://www.armada.mil.co/

Last reported at 2017-Apr-26 12:23 UTC. Time now 2017-Apr-26 15:42 UTC.
Position N 32°30' W 119°55'.

Length 76 m; draft 4.6 m.

Type: Sailing vessel. MMSI: 730010001.

Date/timePositionNaut miles runAvg speedWind from/ knotsBaromVisibWave heightAir tempDewpointWater temp
2017-Apr-26 12:23N 32°30' W 119°55'2 5.3
2017-Apr-26 12:00N 32°28' W 119°55'2 4.4
2017-Apr-26 11:30N 32°26' W 119°54'5 5.4
2017-Apr-26 10:36N 32°21' W 119°52'1 5.2
2017-Apr-26 10:29N 32°21' W 119°52'3 5.0
2017-Apr-26 09:49N 32°18' W 119°51'2 5.0
2017-Apr-26 09:29N 32°16' W 119°50'21 5.3
2017-Apr-26 05:34N 31°56' W 119°42'34 6.1
2017-Apr-26 00:02N 31°24' W 119°30'1 5.8
2017-Apr-25 23:57N 31°24' W 119°29'3 5.9
2017-Apr-25 23:26N 31°21' W 119°29'3 5.7
2017-Apr-25 22:55N 31°18' W 119°28'3 5.6
2017-Apr-25 22:19N 31°15' W 119°27'2 5.8
2017-Apr-25 21:56N 31°13' W 119°26'3 5.5
2017-Apr-25 21:28N 31°10' W 119°26'2 4.9
2017-Apr-25 21:01N 31°08' W 119°25'199 4.6
2017-Apr-24 02:14N 28°35' W 116°59'3 7.9
2017-Apr-24 01:48N 28°33' W 116°56'10 8.0
2017-Apr-24 00:32N 28°24' W 116°50'0 8.0
2017-Apr-24 00:30N 28°24' W 116°50'4 8.4
2017-Apr-24 00:00N 28°20' W 116°47'  
Track history (hours):
 
Tides and Currents Weather Stations Pressure Air Temp Water Temp Dewpoint Dewpoint Depression Visibility Wind Speed Wind Dir Waves Ship Positions

ARC Gloria (Colombia)

Three-masted barque. Training ship of the Colombian National Armada.

Ship's website: http://www.armada.mil.co/

Last reported at 2017-Apr-26 12:23 UTC. Time now 2017-Apr-26 15:42 UTC.
Position N 32°30' W 119°55'.

Length 76 m; draft 4.6 m.

Type: Sailing vessel. MMSI: 730010001.

Date/timePositionNaut miles runAvg speedWind from/ knotsBaromVisibWave heightAir tempDewpointWater temp
2017-Apr-26 12:23N 32°30' W 119°55'2 5.3
2017-Apr-26 12:00N 32°28' W 119°55'2 4.4
2017-Apr-26 11:30N 32°26' W 119°54'5 5.4
2017-Apr-26 10:36N 32°21' W 119°52'1 5.2
2017-Apr-26 10:29N 32°21' W 119°52'3 5.0
2017-Apr-26 09:49N 32°18' W 119°51'2 5.0
2017-Apr-26 09:29N 32°16' W 119°50'21 5.3
2017-Apr-26 05:34N 31°56' W 119°42'34 6.1
2017-Apr-26 00:02N 31°24' W 119°30'1 5.8
2017-Apr-25 23:57N 31°24' W 119°29'3 5.9
2017-Apr-25 23:26N 31°21' W 119°29'3 5.7
2017-Apr-25 22:55N 31°18' W 119°28'3 5.6
2017-Apr-25 22:19N 31°15' W 119°27'2 5.8
2017-Apr-25 21:56N 31°13' W 119°26'3 5.5
2017-Apr-25 21:28N 31°10' W 119°26'2 4.9
2017-Apr-25 21:01N 31°08' W 119°25'199 4.6
2017-Apr-24 02:14N 28°35' W 116°59'3 7.9
2017-Apr-24 01:48N 28°33' W 116°56'10 8.0
2017-Apr-24 00:32N 28°24' W 116°50'0 8.0
2017-Apr-24 00:30N 28°24' W 116°50'4 8.4
2017-Apr-24 00:00N 28°20' W 116°47'  

Dump ship's entire track history